X  ZavřítMETAR data      LKPD Pardubice Airport

Teplota

8°C Teplota

4°C Rosný bod

76% Vlhkost



Vítr

23 KM/H

14 MPH

 6 M/S

12 KTS



120°
VJV směr
Současné podmínky

Převážně polojasno Převážně polojasno
Tlak vzduchu 1017.92 (hPa) - 30.06 (in)
Dohlednost 6.2 (mi) - 10 (km)
Letiště
Kód letiště LKPD

Lokace Pardubice Airport 80 (km)

Metar:
LKPD 041100Z 12012KT 9999 SCT023 BKN100 08/04 Q1018 NOSIG RMK BLU BLU

Čas: 04-12-2022 12:00